createdAt,value
2022-08-28T00:00:41.791Z,83.44
2022-08-28T00:03:13.044Z,84.10
2022-08-28T00:05:41.836Z,84.20
2022-08-28T00:08:13.712Z,84.21
2022-08-28T00:10:43.147Z,84.09
2022-08-28T00:13:18.500Z,84.50
2022-08-28T00:15:51.026Z,85.00
2022-08-28T00:18:19.473Z,84.95
2022-08-28T00:20:49.260Z,85.16
2022-08-28T00:23:18.039Z,85.16
2022-08-28T00:25:45.955Z,85.00
2022-08-28T00:28:24.217Z,85.00
2022-08-28T00:30:59.298Z,85.12
2022-08-28T00:33:34.210Z,85.12
2022-08-28T00:36:03.666Z,84.95
2022-08-28T00:38:31.670Z,85.03
2022-08-28T00:41:04.016Z,85.40
2022-08-28T00:44:10.050Z,85.06
2022-08-28T00:46:39.146Z,84.58
2022-08-28T00:49:07.722Z,84.71
2022-08-28T00:51:55.084Z,84.91
2022-08-28T00:54:24.431Z,84.66
2022-08-28T00:56:53.724Z,84.63
2022-08-28T00:59:25.187Z,84.98
2022-08-28T01:01:58.523Z,84.92
2022-08-28T01:04:32.444Z,84.95
2022-08-28T01:07:07.342Z,84.77
2022-08-28T01:09:40.451Z,84.73
2022-08-28T01:12:15.959Z,84.62
2022-08-28T01:14:47.444Z,85.15
2022-08-28T01:17:18.074Z,85.38
2022-08-28T01:19:57.232Z,85.68
2022-08-28T01:22:51.044Z,85.47
2022-08-28T01:25:22.275Z,85.06
2022-08-28T01:27:51.741Z,85.01
2022-08-28T01:30:22.540Z,85.53
2022-08-28T01:32:56.696Z,85.61
2022-08-28T01:35:32.974Z,86.25
2022-08-28T01:38:02.011Z,86.23
2022-08-28T01:40:36.976Z,85.91
2022-08-28T01:43:21.695Z,85.84
2022-08-28T01:45:56.024Z,85.96
2022-08-28T01:48:26.420Z,86.41
2022-08-28T01:50:55.392Z,86.36
2022-08-28T01:53:32.641Z,86.38
2022-08-28T01:56:08.059Z,86.56
2022-08-28T01:58:38.257Z,86.19
2022-08-28T02:01:18.397Z,86.29
2022-08-28T02:03:46.696Z,86.45
2022-08-28T02:06:16.560Z,86.61
2022-08-28T02:08:45.505Z,86.94
2022-08-28T02:11:13.468Z,86.72
2022-08-28T02:13:41.943Z,87.07
2022-08-28T02:16:11.104Z,86.99
2022-08-28T02:18:39.700Z,87.22
2022-08-28T02:21:10.128Z,87.47
2022-08-28T02:23:43.333Z,87.37
2022-08-28T02:26:13.461Z,87.37
2022-08-28T02:28:42.693Z,87.94
2022-08-28T02:31:11.968Z,87.90
2022-08-28T02:33:43.655Z,88.61
2022-08-28T02:36:14.694Z,88.39
2022-08-28T02:38:45.904Z,88.17
2022-08-28T02:41:13.863Z,88.76
2022-08-28T02:43:41.745Z,88.40
2022-08-28T02:46:09.793Z,88.63
2022-08-28T02:48:40.520Z,89.10
2022-08-28T02:51:13.282Z,89.04
2022-08-28T02:53:41.579Z,88.91
2022-08-28T02:56:10.297Z,89.15
2022-08-28T02:58:39.857Z,89.12
2022-08-28T03:01:11.479Z,88.78
2022-08-28T03:03:41.421Z,88.47
2022-08-28T03:06:14.969Z,88.47
2022-08-28T03:08:45.341Z,89.09
2022-08-28T03:11:13.299Z,89.18
2022-08-28T03:13:42.350Z,89.48
2022-08-28T03:16:10.336Z,89.24
2022-08-28T03:18:38.951Z,89.06
2022-08-28T03:21:07.616Z,89.17
2022-08-28T03:23:37.204Z,89.43
2022-08-28T03:26:16.646Z,90.06
2022-08-28T03:28:49.464Z,90.21
2022-08-28T03:31:22.926Z,89.84
2022-08-28T03:33:51.839Z,90.19
2022-08-28T03:36:26.582Z,89.95
2022-08-28T03:38:57.595Z,90.19
2022-08-28T03:41:29.192Z,90.17
2022-08-28T03:44:00.052Z,89.93
2022-08-28T03:46:32.870Z,90.14
2022-08-28T03:49:03.125Z,89.88
2022-08-28T03:51:34.239Z,90.44
2022-08-28T03:54:04.090Z,90.11
2022-08-28T03:56:32.267Z,90.29
2022-08-28T03:59:02.471Z,90.42
2022-08-28T04:01:30.711Z,90.27
2022-08-28T04:03:58.812Z,90.37
2022-08-28T04:06:28.064Z,90.19
2022-08-28T04:09:00.230Z,90.03
2022-08-28T04:11:28.935Z,90.44
2022-08-28T04:13:57.932Z,90.65
2022-08-28T04:16:25.873Z,90.15
2022-08-28T04:18:54.532Z,90.34
2022-08-28T04:21:25.643Z,90.16
2022-08-28T04:23:55.023Z,90.01
2022-08-28T04:26:26.811Z,90.20
2022-08-28T04:28:56.356Z,90.24
2022-08-28T04:31:32.367Z,90.33
2022-08-28T04:34:09.215Z,90.79
2022-08-28T04:36:38.170Z,90.29
2022-08-28T04:39:08.689Z,90.47
2022-08-28T04:41:38.824Z,90.23
2022-08-28T04:44:07.926Z,90.11
2022-08-28T04:46:36.841Z,90.00
2022-08-28T04:49:05.821Z,89.77
2022-08-28T04:51:33.999Z,89.73
2022-08-28T04:54:03.515Z,89.58
2022-08-28T04:56:31.541Z,89.54
2022-08-28T04:59:01.893Z,89.31
2022-08-28T05:01:31.477Z,88.81
2022-08-28T05:04:02.839Z,89.27
2022-08-28T05:06:33.383Z,88.51
2022-08-28T05:09:04.351Z,88.61
2022-08-28T05:11:34.408Z,89.42
2022-08-28T05:14:06.971Z,88.95
2022-08-28T05:16:46.753Z,89.59
2022-08-28T05:19:17.374Z,89.56
2022-08-28T05:21:46.207Z,89.11
2022-08-28T05:24:14.071Z,88.38
2022-08-28T05:26:42.309Z,88.14
2022-08-28T05:29:11.297Z,88.90
2022-08-28T05:31:41.962Z,88.59
2022-08-28T05:34:10.388Z,88.07
2022-08-28T05:36:39.554Z,87.42
2022-08-28T05:39:11.414Z,87.87
2022-08-28T05:41:43.228Z,88.64
2022-08-28T05:44:15.260Z,88.27
2022-08-28T05:46:47.630Z,88.25
2022-08-28T05:49:19.567Z,87.08
2022-08-28T05:51:48.915Z,86.43
2022-08-28T05:54:17.429Z,87.84
2022-08-28T05:56:46.279Z,87.25
2022-08-28T05:59:15.925Z,86.28
2022-08-28T06:01:48.141Z,85.56
2022-08-28T06:04:25.879Z,85.53
2022-08-28T06:06:54.730Z,85.19
2022-08-28T06:09:29.639Z,85.83
2022-08-28T06:12:02.792Z,85.97
2022-08-28T06:14:32.598Z,85.68
2022-08-28T06:17:02.319Z,84.57
2022-08-28T06:19:35.587Z,84.21
2022-08-28T06:22:07.611Z,84.94
2022-08-28T06:24:36.290Z,83.84
2022-08-28T06:27:04.899Z,84.07
2022-08-28T06:29:33.402Z,84.04
2022-08-28T06:32:04.893Z,84.37
2022-08-28T06:34:32.991Z,85.11
2022-08-28T06:37:01.004Z,84.46
2022-08-28T06:39:28.847Z,84.57
2022-08-28T06:41:56.769Z,84.71
2022-08-28T06:44:24.660Z,84.39
2022-08-28T06:46:54.272Z,83.44
2022-08-28T06:49:22.738Z,82.83
2022-08-28T06:51:51.191Z,82.33
2022-08-28T06:54:22.701Z,81.64
2022-08-28T06:56:52.285Z,81.34
2022-08-28T06:59:20.224Z,81.12
2022-08-28T07:01:48.736Z,81.14
2022-08-28T07:04:16.896Z,79.97
2022-08-28T07:06:47.035Z,80.58
2022-08-28T07:09:16.391Z,79.97
2022-08-28T07:11:46.819Z,78.78
2022-08-28T07:14:14.755Z,78.54
2022-08-28T07:16:44.419Z,78.47
2022-08-28T07:19:13.676Z,77.44
2022-08-28T07:21:45.256Z,77.59
2022-08-28T07:24:15.052Z,77.78
2022-08-28T07:26:44.953Z,78.13
2022-08-28T07:29:14.394Z,78.50
2022-08-28T07:31:48.395Z,79.22
2022-08-28T07:34:21.100Z,79.76
2022-08-28T07:36:52.298Z,78.98
2022-08-28T07:39:20.322Z,78.70
2022-08-28T07:41:48.737Z,77.48
2022-08-28T07:44:36.724Z,76.53
2022-08-28T07:47:06.763Z,76.05
2022-08-28T07:49:38.592Z,76.21
2022-08-28T07:52:08.545Z,75.42
2022-08-28T07:54:37.763Z,76.12
2022-08-28T07:57:09.583Z,77.22
2022-08-28T07:59:38.407Z,77.65
2022-08-28T08:02:07.108Z,77.56
2022-08-28T08:04:35.313Z,76.76
2022-08-28T08:07:04.871Z,76.93
2022-08-28T08:09:38.521Z,77.68
2022-08-28T08:12:10.363Z,76.50
2022-08-28T08:14:40.092Z,75.12
2022-08-28T08:17:10.263Z,74.91
2022-08-28T08:19:40.267Z,74.79
2022-08-28T08:22:08.174Z,75.34
2022-08-28T08:24:36.171Z,75.95
2022-08-28T08:27:06.573Z,76.27
2022-08-28T08:29:37.355Z,75.79
2022-08-28T08:32:10.522Z,75.75
2022-08-28T08:34:42.902Z,74.94
2022-08-28T08:37:11.778Z,75.44
2022-08-28T08:39:42.305Z,74.20
2022-08-28T08:42:30.003Z,73.74
2022-08-28T08:45:04.105Z,74.21
2022-08-28T08:47:52.123Z,73.89
2022-08-28T08:50:27.442Z,74.29
2022-08-28T08:53:14.916Z,73.89
2022-08-28T08:55:50.776Z,73.67
2022-08-28T08:58:32.519Z,73.68
2022-08-28T09:01:16.880Z,73.89
2022-08-28T09:03:57.139Z,74.41
2022-08-28T09:06:50.062Z,73.48
2022-08-28T09:09:46.516Z,73.03
2022-08-28T09:12:27.152Z,73.94
2022-08-28T09:15:34.150Z,72.93
2022-08-28T09:18:23.601Z,73.05
2022-08-28T09:20:55.502Z,72.41
2022-08-28T09:23:25.322Z,72.90
2022-08-28T09:26:01.591Z,72.23
2022-08-28T09:28:36.900Z,72.49
2022-08-28T09:31:20.011Z,72.09
2022-08-28T09:33:52.129Z,72.24
2022-08-28T09:36:31.504Z,72.80
2022-08-28T09:39:05.252Z,72.56
2022-08-28T09:41:57.557Z,71.30
2022-08-28T09:44:25.470Z,71.19
2022-08-28T09:46:53.483Z,72.21
2022-08-28T09:49:30.042Z,72.64
2022-08-28T09:52:04.135Z,72.65
2022-08-28T09:54:41.248Z,72.46
2022-08-28T09:57:09.079Z,72.48
2022-08-28T09:59:36.862Z,71.93
2022-08-28T10:02:29.890Z,70.91
2022-08-28T10:05:12.660Z,70.03
2022-08-28T10:07:56.883Z,70.23
2022-08-28T10:10:38.882Z,70.28
2022-08-28T10:13:20.387Z,70.45
2022-08-28T10:16:23.412Z,70.11
2022-08-28T10:19:00.314Z,70.25
2022-08-28T10:22:09.537Z,69.93
2022-08-28T10:25:08.879Z,69.33
2022-08-28T10:28:15.373Z,69.75
2022-08-28T10:31:13.221Z,69.75
2022-08-28T10:34:31.988Z,70.05
2022-08-28T10:37:30.540Z,70.12
2022-08-28T10:40:08.765Z,70.06
2022-08-28T10:42:44.346Z,70.12
2022-08-28T10:45:27.825Z,69.95
2022-08-28T10:48:00.857Z,70.21
2022-08-28T10:51:00.793Z,70.63
2022-08-28T10:53:38.279Z,70.32
2022-08-28T10:56:25.560Z,70.90
2022-08-28T10:58:59.275Z,71.15
2022-08-28T11:01:32.156Z,70.93
2022-08-28T11:04:07.874Z,70.76
2022-08-28T11:06:54.833Z,70.12
2022-08-28T11:09:46.116Z,69.51
2022-08-28T11:12:16.939Z,69.52
2022-08-28T11:14:49.681Z,69.64
2022-08-28T11:17:27.854Z,70.00
2022-08-28T11:20:22.793Z,69.94
2022-08-28T11:23:09.711Z,69.98
2022-08-28T11:25:40.892Z,69.52
2022-08-28T11:28:39.012Z,69.73
2022-08-28T11:31:06.830Z,69.81
2022-08-28T11:33:45.464Z,69.85
2022-08-28T11:36:33.234Z,69.88
2022-08-28T11:39:13.294Z,69.42
2022-08-28T11:42:13.736Z,69.38
2022-08-28T11:44:45.826Z,69.81
2022-08-28T11:47:39.237Z,69.54
2022-08-28T11:50:31.039Z,68.87
2022-08-28T11:53:37.121Z,68.83
2022-08-28T11:56:36.031Z,69.16
2022-08-28T11:59:35.736Z,69.47
2022-08-28T12:02:38.495Z,69.78
2022-08-28T12:05:10.628Z,69.60
2022-08-28T12:07:45.223Z,70.28
2022-08-28T12:10:22.167Z,69.85
2022-08-28T12:13:05.317Z,70.42
2022-08-28T12:15:36.142Z,72.25
2022-08-28T12:18:53.102Z,72.23
2022-08-28T12:21:26.015Z,73.35
2022-08-28T12:24:14.787Z,72.98
2022-08-28T12:26:51.484Z,73.45
2022-08-28T12:29:31.455Z,73.48
2022-08-28T12:32:16.361Z,73.23
2022-08-28T12:34:59.471Z,73.19
2022-08-28T12:37:51.170Z,73.63
2022-08-28T12:40:41.844Z,74.23
2022-08-28T12:43:15.450Z,73.54
2022-08-28T12:46:02.400Z,73.16
2022-08-28T12:48:58.703Z,72.65
2022-08-28T12:51:36.839Z,73.60
2022-08-28T12:54:08.735Z,73.50
2022-08-28T12:56:38.892Z,73.22
2022-08-28T12:59:37.498Z,73.35
2022-08-28T13:02:33.749Z,72.64
2022-08-28T13:05:10.486Z,72.60
2022-08-28T13:07:47.165Z,72.03
2022-08-28T13:10:25.369Z,71.92
2022-08-28T13:13:03.227Z,71.17
2022-08-28T13:16:01.447Z,70.49
2022-08-28T13:18:42.199Z,70.03
2022-08-28T13:21:13.258Z,69.88
2022-08-28T13:23:41.432Z,69.80
2022-08-28T13:26:11.148Z,69.73
2022-08-28T13:28:43.215Z,69.40
2022-08-28T13:31:34.680Z,68.41
2022-08-28T13:34:26.955Z,68.92
2022-08-28T13:36:59.912Z,69.44
2022-08-28T13:39:31.991Z,70.06
2022-08-28T13:42:13.638Z,69.11
2022-08-28T13:44:53.354Z,69.04
2022-08-28T13:47:21.327Z,68.75
2022-08-28T13:49:49.311Z,68.48
2022-08-28T13:52:17.709Z,68.76
2022-08-28T13:54:46.819Z,68.34
2022-08-28T13:57:15.299Z,68.27
2022-08-28T13:59:43.221Z,67.48
2022-08-28T14:02:32.416Z,68.44
2022-08-28T14:05:01.162Z,68.63
2022-08-28T14:07:29.515Z,68.41
2022-08-28T14:09:57.995Z,67.29
2022-08-28T14:12:31.377Z,68.55
2022-08-28T14:15:02.211Z,69.17
2022-08-28T14:17:30.231Z,68.30
2022-08-28T14:20:00.254Z,67.86
2022-08-28T14:22:28.905Z,68.11
2022-08-28T14:24:57.637Z,67.69
2022-08-28T14:27:25.516Z,67.87
2022-08-28T14:29:53.405Z,67.62
2022-08-28T14:32:21.399Z,67.77
2022-08-28T14:34:50.715Z,68.56
2022-08-28T14:37:19.587Z,68.06
2022-08-28T14:39:48.226Z,68.19
2022-08-28T14:42:17.294Z,68.67
2022-08-28T14:44:45.651Z,68.95
2022-08-28T14:47:13.824Z,68.64
2022-08-28T14:49:42.176Z,68.84
2022-08-28T14:52:11.046Z,68.49
2022-08-28T14:54:40.549Z,68.49
2022-08-28T14:57:08.529Z,69.51
2022-08-28T14:59:36.408Z,68.80
2022-08-28T15:02:04.498Z,68.83
2022-08-28T15:04:35.311Z,69.01
2022-08-28T15:07:10.910Z,69.16
2022-08-28T15:09:43.919Z,69.17
2022-08-28T15:12:11.970Z,68.84
2022-08-28T15:14:39.947Z,68.81
2022-08-28T15:17:08.535Z,68.12
2022-08-28T15:19:40.708Z,68.68
2022-08-28T15:22:08.642Z,68.12
2022-08-28T15:24:37.157Z,69.60
2022-08-28T15:27:05.150Z,69.63
2022-08-28T15:29:34.075Z,69.47
2022-08-28T15:32:03.781Z,69.65
2022-08-28T15:34:31.908Z,70.22
2022-08-28T15:37:00.455Z,70.86
2022-08-28T15:39:48.018Z,70.29
2022-08-28T15:42:16.490Z,70.96
2022-08-28T15:44:44.394Z,71.12
2022-08-28T15:47:14.104Z,70.68
2022-08-28T15:49:48.973Z,71.39
2022-08-28T15:52:20.249Z,72.05
2022-08-28T15:54:48.832Z,72.10
2022-08-28T15:57:17.000Z,72.32
2022-08-28T15:59:49.637Z,72.52
2022-08-28T16:02:23.205Z,72.83
2022-08-28T16:04:53.367Z,72.86
2022-08-28T16:07:23.136Z,72.72
2022-08-28T16:09:52.712Z,72.69
2022-08-28T16:12:20.698Z,72.69
2022-08-28T16:14:50.343Z,73.33
2022-08-28T16:17:19.054Z,72.70
2022-08-28T16:19:48.126Z,72.87
2022-08-28T16:22:16.980Z,72.86
2022-08-28T16:24:46.704Z,72.93
2022-08-28T16:27:15.830Z,72.95
2022-08-28T16:29:45.405Z,72.86
2022-08-28T16:32:13.848Z,72.98
2022-08-28T16:34:44.894Z,73.16
2022-08-28T16:37:13.463Z,72.97
2022-08-28T16:39:46.587Z,73.16
2022-08-28T16:42:15.154Z,73.30
2022-08-28T16:44:43.110Z,73.15
2022-08-28T16:47:11.011Z,73.36
2022-08-28T16:49:38.932Z,72.80
2022-08-28T16:52:06.871Z,72.75
2022-08-28T16:54:34.673Z,73.38
2022-08-28T16:57:02.878Z,73.39
2022-08-28T16:59:31.456Z,73.93
2022-08-28T17:01:59.843Z,73.57
2022-08-28T17:04:27.898Z,73.61
2022-08-28T17:06:56.094Z,73.49
2022-08-28T17:09:24.949Z,73.34
2022-08-28T17:11:53.970Z,73.68
2022-08-28T17:14:22.479Z,73.92
2022-08-28T17:16:51.590Z,74.26
2022-08-28T17:19:21.043Z,74.15
2022-08-28T17:22:08.434Z,74.10
2022-08-28T17:24:36.764Z,74.39
2022-08-28T17:27:05.812Z,74.47
2022-08-28T17:29:36.334Z,74.66
2022-08-28T17:32:07.799Z,74.47
2022-08-28T17:34:36.479Z,74.69
2022-08-28T17:37:04.992Z,74.64
2022-08-28T17:39:32.891Z,74.52
2022-08-28T17:42:00.815Z,74.65
2022-08-28T17:44:28.724Z,74.91
2022-08-28T17:46:56.747Z,75.14
2022-08-28T17:49:25.875Z,75.74
2022-08-28T17:51:54.338Z,75.46
2022-08-28T17:54:24.235Z,75.76
2022-08-28T17:56:54.590Z,75.74
2022-08-28T17:59:24.656Z,75.94
2022-08-28T18:01:52.790Z,76.14
2022-08-28T18:04:24.524Z,76.11
2022-08-28T18:06:54.627Z,76.25
2022-08-28T18:09:24.180Z,76.65
2022-08-28T18:11:52.511Z,77.19
2022-08-28T18:14:21.529Z,77.37
2022-08-28T18:16:50.064Z,77.82
2022-08-28T18:19:18.320Z,77.95
2022-08-28T18:21:46.300Z,78.17
2022-08-28T18:24:14.443Z,78.61
2022-08-28T18:26:43.755Z,78.50
2022-08-28T18:29:12.794Z,78.71
2022-08-28T18:31:41.764Z,79.13
2022-08-28T18:34:10.920Z,79.22
2022-08-28T18:36:43.742Z,79.32
2022-08-28T18:39:11.977Z,79.21
2022-08-28T18:41:44.026Z,79.41
2022-08-28T18:44:17.712Z,80.00
2022-08-28T18:46:48.278Z,79.81
2022-08-28T18:49:16.976Z,79.97
2022-08-28T18:51:45.221Z,79.84
2022-08-28T18:54:17.536Z,80.12
2022-08-28T18:56:48.327Z,80.06
2022-08-28T18:59:18.850Z,80.33
2022-08-28T19:01:46.826Z,80.85
2022-08-28T19:04:14.875Z,80.32
2022-08-28T19:06:42.750Z,80.49
2022-08-28T19:09:20.505Z,80.83
2022-08-28T19:11:48.807Z,81.14
2022-08-28T19:14:16.772Z,80.84
2022-08-28T19:16:45.489Z,80.63
2022-08-28T19:19:13.831Z,80.62
2022-08-28T19:21:41.738Z,80.72
2022-08-28T19:24:09.696Z,80.75
2022-08-28T19:26:39.231Z,81.13
2022-08-28T19:29:07.318Z,80.99
2022-08-28T19:31:37.592Z,81.09
2022-08-28T19:34:07.607Z,81.26
2022-08-28T19:36:35.818Z,81.12
2022-08-28T19:39:06.334Z,81.36
2022-08-28T19:41:35.086Z,80.69
2022-08-28T19:44:06.747Z,80.75
2022-08-28T19:46:37.540Z,81.01
2022-08-28T19:49:07.488Z,81.00
2022-08-28T19:51:38.133Z,80.94
2022-08-28T19:54:11.044Z,81.04
2022-08-28T19:56:39.929Z,81.41
2022-08-28T19:59:08.920Z,81.38
2022-08-28T20:01:41.464Z,81.65
2022-08-28T20:04:13.398Z,81.87
2022-08-28T20:06:41.221Z,81.94
2022-08-28T20:09:12.878Z,82.24
2022-08-28T20:11:44.219Z,82.04
2022-08-28T20:14:14.214Z,82.30
2022-08-28T20:16:45.484Z,82.30
2022-08-28T20:19:13.509Z,82.13
2022-08-28T20:21:44.659Z,82.37
2022-08-28T20:24:17.648Z,82.24
2022-08-28T20:26:47.095Z,82.52
2022-08-28T20:29:16.111Z,82.69
2022-08-28T20:31:48.020Z,82.53
2022-08-28T20:34:19.179Z,82.12
2022-08-28T20:36:47.977Z,82.09
2022-08-28T20:39:17.058Z,82.08
2022-08-28T20:41:47.198Z,81.61
2022-08-28T20:44:18.619Z,81.75
2022-08-28T20:46:47.127Z,81.45
2022-08-28T20:49:22.349Z,81.36
2022-08-28T20:51:56.355Z,81.32
2022-08-28T20:54:31.947Z,81.51
2022-08-28T20:57:04.508Z,81.68
2022-08-28T20:59:39.478Z,81.12
2022-08-28T21:02:13.848Z,81.13
2022-08-28T21:04:43.678Z,80.80
2022-08-28T21:07:13.702Z,80.86
2022-08-28T21:10:04.102Z,80.76
2022-08-28T21:12:30.363Z,80.60
2022-08-28T21:14:58.483Z,80.42
2022-08-28T21:17:29.399Z,80.22
2022-08-28T21:20:03.162Z,79.94
2022-08-28T21:22:32.969Z,79.76
2022-08-28T21:25:06.260Z,79.83
2022-08-28T21:27:35.015Z,79.73
2022-08-28T21:30:05.800Z,79.75
2022-08-28T21:32:34.220Z,79.80
2022-08-28T21:35:05.428Z,79.75
2022-08-28T21:37:34.343Z,79.49
2022-08-28T21:40:05.646Z,79.41
2022-08-28T21:42:33.817Z,79.39
2022-08-28T21:45:01.917Z,79.49
2022-08-28T21:47:31.527Z,79.68
2022-08-28T21:49:59.639Z,79.34
2022-08-28T21:52:30.660Z,79.42
2022-08-28T21:55:07.371Z,79.83
2022-08-28T21:57:35.777Z,79.88
2022-08-28T22:00:10.054Z,80.38
2022-08-28T22:02:38.879Z,80.42
2022-08-28T22:05:07.145Z,80.87
2022-08-28T22:07:35.018Z,80.88
2022-08-28T22:10:04.315Z,81.13
2022-08-28T22:12:33.395Z,81.29
2022-08-28T22:15:01.883Z,81.85
2022-08-28T22:17:29.742Z,82.18
2022-08-28T22:19:57.640Z,82.04
2022-08-28T22:22:44.334Z,82.51
2022-08-28T22:25:12.252Z,82.61
2022-08-28T22:27:40.143Z,82.73
2022-08-28T22:30:09.170Z,82.89
2022-08-28T22:32:37.092Z,82.70
2022-08-28T22:35:05.861Z,83.13
2022-08-28T22:37:36.090Z,82.81
2022-08-28T22:40:09.443Z,82.05
2022-08-28T22:42:42.717Z,81.95
2022-08-28T22:45:11.172Z,81.74
2022-08-28T22:47:39.720Z,81.59
2022-08-28T22:50:08.532Z,81.73
2022-08-28T22:52:37.190Z,81.77
2022-08-28T22:55:12.354Z,81.35
2022-08-28T22:57:40.853Z,81.71
2022-08-28T23:00:19.404Z,81.90
2022-08-28T23:02:47.664Z,81.70
2022-08-28T23:05:15.977Z,81.24
2022-08-28T23:07:44.182Z,81.56
2022-08-28T23:10:13.021Z,81.44
2022-08-28T23:12:40.923Z,81.96
2022-08-28T23:15:14.603Z,82.24
2022-08-28T23:17:43.878Z,82.27
2022-08-28T23:20:16.203Z,82.45
2022-08-28T23:22:46.280Z,82.40
2022-08-28T23:25:22.944Z,82.59
2022-08-28T23:27:53.419Z,82.87
2022-08-28T23:30:22.582Z,82.86
2022-08-28T23:32:51.616Z,82.72
2022-08-28T23:35:21.037Z,83.01
2022-08-28T23:37:51.814Z,83.14
2022-08-28T23:40:24.209Z,82.94
2022-08-28T23:42:53.871Z,83.32
2022-08-28T23:45:22.379Z,83.55
2022-08-28T23:47:51.604Z,83.71
2022-08-28T23:50:22.058Z,83.95
2022-08-28T23:52:50.700Z,83.95
2022-08-28T23:55:20.859Z,84.36
2022-08-28T23:57:52.283Z,84.52
